Cypress, Florida
Current Conditions -  °F | °C
As of 9:53 AM on Saturday 25 Oct 2014 (Local Time) from KMAI Reporting Station
Clear Clear  
Wind Chill: 65°   Ceiling: Unl
Heat Index: 65°   Visibility: 10mi
Dew Point: 50°   Wind: 3mph
Humidity: 58%   Direction: 30°NNE
Pressure: 30.08"   Gusts: NA
Location:  30.71°N, 85.07°W
Report Text: KMAI 251453Z AUTO 03003KT 10SM CLR 18/10 A3008 RMK AO2 SLP184 60000 T01830100 51012 $
Loading
Personal Weather Stations






























Interactive Weather Map
Tropical Storm Tracking
New forecast layout! Learn more

10-Day Weather Forecast

Advertisements
Track Severe Weather on mobile